KCAD/CAD METAR and TAF weather

Enter ICAO airport designator
Station Type Date Time Source
KCAD METAR 2019/05/26 22:55 UTC NOAA

KCAD 262255Z AUTO 33011G14KT 10SM CLR 20/08 A3005 RMK AO2 T02050091


Station Type Date Time Source
KCAD Decoded METAR 2019/05/26 22:55 UTC NOAA

Cadillac / Wexford County, MI, United States (KCAD) 44-17N 085-25W
May 26, 2019 - 06:55 PM EDT / 2019.05.26 2255 UTC
Wind: from the NNW (330 degrees) at 13 MPH (11 KT) gusting to 16 MPH (14 KT):0
Visibility: 10 mile(s):0
Sky conditions: clear
Temperature: 68.9 F (20.5 C)
Dew Point: 48.4 F (9.1 C)
Relative Humidity: 47%
Pressure (altimeter): 30.05 in. Hg (1017 hPa)
ob: KCAD 262255Z AUTO 33011G14KT 10SM CLR 20/08 A3005 RMK AO2 T02050091
cycle: 23

Station Type Date Time Source
KCAD TAF UTC NOAA

Error!

Example: see airport list